sensor_id;sensor_type;location;lat;lon;timestamp;pressure;altitude;pressure_sealevel;temperature;humidity
47636;BME280;33364;50.766;15.338;2023-07-09T00:02:22;95627.09;;;16.26;68.27
47636;BME280;33364;50.766;15.338;2023-07-09T00:04:48;95623.91;;;16.46;64.70
47636;BME280;33364;50.766;15.338;2023-07-09T00:07:19;95621.59;;;16.53;65.86
47636;BME280;33364;50.766;15.338;2023-07-09T00:09:47;95621.25;;;16.46;64.10
47636;BME280;33364;50.766;15.338;2023-07-09T00:12:17;95625.91;;;16.63;63.47
47636;BME280;33364;50.766;15.338;2023-07-09T00:14:43;95628.03;;;16.52;62.11
47636;BME280;33364;50.766;15.338;2023-07-09T00:17:30;95621.88;;;16.65;63.97
47636;BME280;33364;50.766;15.338;2023-07-09T00:19:56;95628.94;;;16.47;61.99
47636;BME280;33364;50.766;15.338;2023-07-09T00:22:22;95637.88;;;16.65;67.19
47636;BME280;33364;50.766;15.338;2023-07-09T00:24:51;95631.47;;;16.75;64.47
47636;BME280;33364;50.766;15.338;2023-07-09T00:27:19;95637.31;;;16.85;64.88
47636;BME280;33364;50.766;15.338;2023-07-09T00:29:45;95628.84;;;16.92;61.88
47636;BME280;33364;50.766;15.338;2023-07-09T00:32:18;95632.00;;;16.94;64.86
47636;BME280;33364;50.766;15.338;2023-07-09T00:34:49;95629.06;;;17.04;66.47
47636;BME280;33364;50.766;15.338;2023-07-09T00:37:18;95623.97;;;16.85;60.37
47636;BME280;33364;50.766;15.338;2023-07-09T00:39:45;95624.69;;;16.69;60.71
47636;BME280;33364;50.766;15.338;2023-07-09T00:42:16;95627.38;;;16.77;65.42
47636;BME280;33364;50.766;15.338;2023-07-09T00:44:49;95627.63;;;16.59;61.77
47636;BME280;33364;50.766;15.338;2023-07-09T00:50:15;95636.59;;;15.74;62.42
47636;BME280;33364;50.766;15.338;2023-07-09T00:52:52;95633.28;;;15.41;64.02
47636;BME280;33364;50.766;15.338;2023-07-09T00:55:24;95636.69;;;15.05;65.02
47636;BME280;33364;50.766;15.338;2023-07-09T00:57:53;95632.75;;;14.89;65.64
47636;BME280;33364;50.766;15.338;2023-07-09T01:00:54;95630.66;;;14.72;66.04
47636;BME280;33364;50.766;15.338;2023-07-09T01:03:35;95633.50;;;14.76;66.49
47636;BME280;33364;50.766;15.338;2023-07-09T01:06:02;95625.25;;;14.77;67.42
47636;BME280;33364;50.766;15.338;2023-07-09T01:08:33;95628.91;;;14.95;67.44
47636;BME280;33364;50.766;15.338;2023-07-09T01:11:00;95632.16;;;14.92;65.93
47636;BME280;33364;50.766;15.338;2023-07-09T01:13:27;95628.69;;;14.78;66.11
47636;BME280;33364;50.766;15.338;2023-07-09T01:15:54;95621.50;;;14.65;66.66
47636;BME280;33364;50.766;15.338;2023-07-09T01:18:21;95626.03;;;14.78;69.25
47636;BME280;33364;50.766;15.338;2023-07-09T01:20:51;95625.44;;;15.08;71.41
47636;BME280;33364;50.766;15.338;2023-07-09T01:23:18;95628.94;;;15.58;72.71
47636;BME280;33364;50.766;15.338;2023-07-09T01:25:47;95627.41;;;15.16;64.91
47636;BME280;33364;50.766;15.338;2023-07-09T01:28:18;95634.53;;;14.80;65.81
47636;BME280;33364;50.766;15.338;2023-07-09T01:30:44;95627.50;;;14.57;66.52
47636;BME280;33364;50.766;15.338;2023-07-09T01:33:10;95626.25;;;14.68;68.44
47636;BME280;33364;50.766;15.338;2023-07-09T01:35:38;95635.06;;;14.50;66.61
47636;BME280;33364;50.766;15.338;2023-07-09T01:38:07;95634.75;;;14.38;67.36
47636;BME280;33364;50.766;15.338;2023-07-09T01:40:33;95633.81;;;14.28;67.41
47636;BME280;33364;50.766;15.338;2023-07-09T01:43:00;95635.28;;;14.53;70.35
47636;BME280;33364;50.766;15.338;2023-07-09T01:45:27;95633.50;;;14.76;70.14
47636;BME280;33364;50.766;15.338;2023-07-09T01:47:54;95627.50;;;14.57;66.74
47636;BME280;33364;50.766;15.338;2023-07-09T01:50:21;95638.97;;;14.38;67.32
47636;BME280;33364;50.766;15.338;2023-07-09T01:52:47;95629.97;;;14.53;67.57
47636;BME280;33364;50.766;15.338;2023-07-09T01:55:15;95639.44;;;14.87;71.46
47636;BME280;33364;50.766;15.338;2023-07-09T01:57:43;95633.50;;;14.62;66.08
47636;BME280;33364;50.766;15.338;2023-07-09T02:00:15;95637.41;;;14.38;67.69
47636;BME280;33364;50.766;15.338;2023-07-09T02:02:42;95634.03;;;14.32;68.05
47636;BME280;33364;50.766;15.338;2023-07-09T02:05:09;95638.81;;;14.49;69.46
47636;BME280;33364;50.766;15.338;2023-07-09T02:07:35;95637.28;;;14.75;73.25
47636;BME280;33364;50.766;15.338;2023-07-09T02:10:01;95624.97;;;14.79;66.64
47636;BME280;33364;50.766;15.338;2023-07-09T02:12:27;95629.00;;;14.63;66.27
47636;BME280;33364;50.766;15.338;2023-07-09T02:14:53;95638.13;;;14.43;66.39
47636;BME280;33364;50.766;15.338;2023-07-09T02:17:18;95632.25;;;14.27;67.11
47636;BME280;33364;50.766;15.338;2023-07-09T02:19:44;95644.28;;;14.38;68.75
47636;BME280;33364;50.766;15.338;2023-07-09T02:22:11;95630.34;;;14.47;67.88
47636;BME280;33364;50.766;15.338;2023-07-09T02:24:38;95634.78;;;14.51;67.28
47636;BME280;33364;50.766;15.338;2023-07-09T02:27:06;95637.28;;;14.75;68.85
47636;BME280;33364;50.766;15.338;2023-07-09T02:29:32;95635.09;;;15.04;69.22
47636;BME280;33364;50.766;15.338;2023-07-09T02:32:00;95641.63;;;14.85;66.90
47636;BME280;33364;50.766;15.338;2023-07-09T02:34:26;95649.09;;;14.69;66.23
47636;BME280;33364;50.766;15.338;2023-07-09T02:36:54;95643.69;;;14.74;65.63
47636;BME280;33364;50.766;15.338;2023-07-09T02:39:20;95639.44;;;14.87;70.82
47636;BME280;33364;50.766;15.338;2023-07-09T02:41:47;95642.59;;;14.75;65.99
47636;BME280;33364;50.766;15.338;2023-07-09T02:44:12;95647.09;;;14.61;65.97
47636;BME280;33364;50.766;15.338;2023-07-09T02:46:39;95657.09;;;14.36;66.21
47636;BME280;33364;50.766;15.338;2023-07-09T02:49:06;95646.09;;;14.43;67.31
47636;BME280;33364;50.766;15.338;2023-07-09T02:51:32;95650.44;;;14.53;67.75
47636;BME280;33364;50.766;15.338;2023-07-09T02:54:00;95657.50;;;14.44;66.54
47636;BME280;33364;50.766;15.338;2023-07-09T02:56:27;95650.03;;;14.46;67.44
47636;BME280;33364;50.766;15.338;2023-07-09T02:58:53;95652.03;;;14.54;67.89
47636;BME280;33364;50.766;15.338;2023-07-09T03:01:19;95641.69;;;14.66;67.48
47636;BME280;33364;50.766;15.338;2023-07-09T03:03:51;95647.38;;;14.59;66.80
47636;BME280;33364;50.766;15.338;2023-07-09T03:06:19;95644.84;;;14.68;69.96
47636;BME280;33364;50.766;15.338;2023-07-09T03:08:45;95650.47;;;14.94;71.70
47636;BME280;33364;50.766;15.338;2023-07-09T03:11:12;95645.84;;;14.99;67.61
47636;BME280;33364;50.766;15.338;2023-07-09T03:13:38;95646.25;;;15.06;67.72
47636;BME280;33364;50.766;15.338;2023-07-09T03:16:05;95651.84;;;15.18;67.80
47636;BME280;33364;50.766;15.338;2023-07-09T03:18:31;95659.94;;;15.00;65.10
47636;BME280;33364;50.766;15.338;2023-07-09T03:20:57;95659.44;;;14.98;66.26
47636;BME280;33364;50.766;15.338;2023-07-09T03:23:23;95650.94;;;15.23;69.92
47636;BME280;33364;50.766;15.338;2023-07-09T03:25:49;95659.50;;;15.47;70.78
47636;BME280;33364;50.766;15.338;2023-07-09T03:28:15;95659.22;;;15.49;66.39
47636;BME280;33364;50.766;15.338;2023-07-09T03:30:46;95657.63;;;15.34;67.27
47636;BME280;33364;50.766;15.338;2023-07-09T03:33:13;95659.59;;;15.42;68.30
47636;BME280;33364;50.766;15.338;2023-07-09T03:35:40;95651.22;;;15.35;65.95
47636;BME280;33364;50.766;15.338;2023-07-09T03:38:06;95660.53;;;15.10;64.58
47636;BME280;33364;50.766;15.338;2023-07-09T03:40:33;95657.47;;;15.03;66.19
47636;BME280;33364;50.766;15.338;2023-07-09T03:42:58;95667.00;;;15.32;70.85
47636;BME280;33364;50.766;15.338;2023-07-09T03:45:24;95661.09;;;15.48;69.09
47636;BME280;33364;50.766;15.338;2023-07-09T03:47:50;95663.13;;;15.65;68.60
47636;BME280;33364;50.766;15.338;2023-07-09T03:50:17;95668.13;;;15.80;69.85
47636;BME280;33364;50.766;15.338;2023-07-09T03:52:43;95661.69;;;15.81;66.18
47636;BME280;33364;50.766;15.338;2023-07-09T03:55:09;95663.41;;;15.77;65.01
47636;BME280;33364;50.766;15.338;2023-07-09T03:57:35;95665.00;;;15.51;64.65
47636;BME280;33364;50.766;15.338;2023-07-09T04:00:04;95668.50;;;15.10;64.90
47636;BME280;33364;50.766;15.338;2023-07-09T04:02:30;95670.06;;;14.84;66.08
47636;BME280;33364;50.766;15.338;2023-07-09T04:04:57;95669.19;;;15.02;69.51
47636;BME280;33364;50.766;15.338;2023-07-09T04:07:22;95671.97;;;15.11;66.61
47636;BME280;33364;50.766;15.338;2023-07-09T04:09:48;95671.66;;;14.99;66.39
47636;BME280;33364;50.766;15.338;2023-07-09T04:12:14;95664.44;;;15.13;67.39
47636;BME280;33364;50.766;15.338;2023-07-09T04:14:40;95668.00;;;15.22;69.53
47636;BME280;33364;50.766;15.338;2023-07-09T04:17:06;95668.50;;;15.51;70.13
47636;BME280;33364;50.766;15.338;2023-07-09T04:19:32;95664.13;;;15.55;66.91
47636;BME280;33364;50.766;15.338;2023-07-09T04:21:58;95666.63;;;15.52;65.92
47636;BME280;33364;50.766;15.338;2023-07-09T04:24:24;95673.41;;;15.58;67.70
47636;BME280;33364;50.766;15.338;2023-07-09T04:26:49;95675.28;;;15.30;65.97
47636;BME280;33364;50.766;15.338;2023-07-09T04:29:15;95678.25;;;15.15;66.20
47636;BME280;33364;50.766;15.338;2023-07-09T04:31:41;95680.81;;;15.06;66.85
47636;BME280;33364;50.766;15.338;2023-07-09T04:34:07;95682.78;;;15.01;67.81
47636;BME280;33364;50.766;15.338;2023-07-09T04:36:33;95685.03;;;15.35;72.21
47636;BME280;33364;50.766;15.338;2023-07-09T04:38:59;95687.81;;;15.43;69.20
47636;BME280;33364;50.766;15.338;2023-07-09T04:41:25;95683.34;;;15.66;71.77
47636;BME280;33364;50.766;15.338;2023-07-09T04:43:51;95694.59;;;15.36;67.06
47636;BME280;33364;50.766;15.338;2023-07-09T04:46:16;95685.72;;;15.13;67.58
47636;BME280;33364;50.766;15.338;2023-07-09T04:48:42;95692.53;;;15.05;68.36
47636;BME280;33364;50.766;15.338;2023-07-09T04:51:08;95688.50;;;15.35;71.83
47636;BME280;33364;50.766;15.338;2023-07-09T04:53:34;95687.53;;;15.58;71.73
47636;BME280;33364;50.766;15.338;2023-07-09T04:56:00;95688.97;;;15.51;67.55
47636;BME280;33364;50.766;15.338;2023-07-09T04:58:29;95687.31;;;15.28;68.42
47636;BME280;33364;50.766;15.338;2023-07-09T05:00:58;95686.63;;;15.36;70.05
47636;BME280;33364;50.766;15.338;2023-07-09T05:03:25;95688.69;;;15.39;69.78
47636;BME280;33364;50.766;15.338;2023-07-09T05:05:51;95690.66;;;15.60;70.30
47636;BME280;33364;50.766;15.338;2023-07-09T05:08:17;95686.91;;;15.61;70.90
47636;BME280;33364;50.766;15.338;2023-07-09T05:10:44;95684.47;;;15.87;72.40
47636;BME280;33364;50.766;15.338;2023-07-09T05:13:11;95689.47;;;16.02;68.52
47636;BME280;33364;50.766;15.338;2023-07-09T05:15:41;95688.59;;;15.93;68.75
47636;BME280;33364;50.766;15.338;2023-07-09T05:18:07;95691.13;;;16.12;70.81
47636;BME280;33364;50.766;15.338;2023-07-09T05:20:34;95688.75;;;16.11;68.50
47636;BME280;33364;50.766;15.338;2023-07-09T05:23:00;95685.97;;;16.16;68.75
47636;BME280;33364;50.766;15.338;2023-07-09T05:25:26;95683.47;;;16.41;69.27
47636;BME280;33364;50.766;15.338;2023-07-09T05:27:52;95686.69;;;16.52;68.12
47636;BME280;33364;50.766;15.338;2023-07-09T05:30:18;95687.88;;;16.60;68.70
47636;BME280;33364;50.766;15.338;2023-07-09T05:32:45;95693.59;;;16.53;68.45
47636;BME280;33364;50.766;15.338;2023-07-09T05:35:11;95687.31;;;16.49;68.76
47636;BME280;33364;50.766;15.338;2023-07-09T05:37:37;95691.53;;;16.72;69.54
47636;BME280;33364;50.766;15.338;2023-07-09T05:40:04;95695.09;;;16.90;67.38
47636;BME280;33364;50.766;15.338;2023-07-09T05:42:31;95695.25;;;16.94;67.54
47636;BME280;33364;50.766;15.338;2023-07-09T05:44:57;95686.03;;;17.08;67.94
47636;BME280;33364;50.766;15.338;2023-07-09T05:47:24;95693.75;;;17.10;67.93
47636;BME280;33364;50.766;15.338;2023-07-09T05:49:50;95692.53;;;17.24;68.21
47636;BME280;33364;50.766;15.338;2023-07-09T05:52:21;95692.91;;;17.40;67.40
47636;BME280;33364;50.766;15.338;2023-07-09T05:54:51;95693.25;;;17.56;66.05
47636;BME280;33364;50.766;15.338;2023-07-09T05:57:18;95692.88;;;17.80;67.48
47636;BME280;33364;50.766;15.338;2023-07-09T05:59:44;95686.41;;;17.98;67.01
47636;BME280;33364;50.766;15.338;2023-07-09T06:02:11;95687.84;;;18.21;66.48
47636;BME280;33364;50.766;15.338;2023-07-09T06:04:37;95693.16;;;18.47;67.05
47636;BME280;33364;50.766;15.338;2023-07-09T06:07:03;95687.03;;;18.64;65.52
47636;BME280;33364;50.766;15.338;2023-07-09T06:09:30;95681.97;;;18.79;64.93
47636;BME280;33364;50.766;15.338;2023-07-09T06:11:56;95681.44;;;18.94;63.15
47636;BME280;33364;50.766;15.338;2023-07-09T06:14:21;95678.53;;;19.17;62.35
47636;BME280;33364;50.766;15.338;2023-07-09T06:16:47;95672.13;;;19.38;63.06
47636;BME280;33364;50.766;15.338;2023-07-09T06:19:13;95672.50;;;19.58;62.57
47636;BME280;33364;50.766;15.338;2023-07-09T06:21:39;95672.41;;;19.75;62.41
47636;BME280;33364;50.766;15.338;2023-07-09T06:24:06;95674.63;;;19.94;63.33
47636;BME280;33364;50.766;15.338;2023-07-09T06:26:33;95676.06;;;20.12;62.95
47636;BME280;33364;50.766;15.338;2023-07-09T06:28:58;95679.88;;;20.32;62.17
47636;BME280;33364;50.766;15.338;2023-07-09T06:31:24;95683.66;;;20.51;61.71
47636;BME280;33364;50.766;15.338;2023-07-09T06:33:50;95681.81;;;20.76;61.65
47636;BME280;33364;50.766;15.338;2023-07-09T06:36:18;95676.28;;;20.93;61.00
47636;BME280;33364;50.766;15.338;2023-07-09T06:38:44;95681.63;;;21.05;60.42
47636;BME280;33364;50.766;15.338;2023-07-09T06:41:11;95678.09;;;21.14;60.45
47636;BME280;33364;50.766;15.338;2023-07-09T06:43:36;95674.97;;;21.24;61.80
47636;BME280;33364;50.766;15.338;2023-07-09T06:46:06;95669.63;;;21.36;59.48
47636;BME280;33364;50.766;15.338;2023-07-09T06:48:32;95672.75;;;21.50;58.35
47636;BME280;33364;50.766;15.338;2023-07-09T06:50:59;95664.88;;;21.69;57.79
47636;BME280;33364;50.766;15.338;2023-07-09T06:53:27;95665.31;;;21.96;57.24
47636;BME280;33364;50.766;15.338;2023-07-09T06:55:54;95673.19;;;22.16;57.69
47636;BME280;33364;50.766;15.338;2023-07-09T06:58:22;95670.31;;;22.37;55.12
47636;BME280;33364;50.766;15.338;2023-07-09T07:00:50;95671.59;;;22.55;54.13
47636;BME280;33364;50.766;15.338;2023-07-09T07:03:16;95671.75;;;22.74;52.04
47636;BME280;33364;50.766;15.338;2023-07-09T07:05:46;95671.50;;;22.95;53.62
47636;BME280;33364;50.766;15.338;2023-07-09T07:08:16;95665.00;;;23.12;52.52
47636;BME280;33364;50.766;15.338;2023-07-09T07:10:44;95664.06;;;23.36;52.85
47636;BME280;33364;50.766;15.338;2023-07-09T07:13:10;95653.78;;;23.41;50.43
47636;BME280;33364;50.766;15.338;2023-07-09T07:15:37;95656.56;;;23.61;51.18
47636;BME280;33364;50.766;15.338;2023-07-09T07:18:03;95661.97;;;23.80;51.43
47636;BME280;33364;50.766;15.338;2023-07-09T07:20:30;95662.81;;;23.99;51.87
47636;BME280;33364;50.766;15.338;2023-07-09T07:22:56;95665.25;;;24.24;47.53
47636;BME280;33364;50.766;15.338;2023-07-09T07:25:23;95663.78;;;24.46;47.29
47636;BME280;33364;50.766;15.338;2023-07-09T07:27:48;95666.88;;;24.67;42.99
47636;BME280;33364;50.766;15.338;2023-07-09T07:30:15;95665.69;;;24.87;40.48
47636;BME280;33364;50.766;15.338;2023-07-09T07:32:46;95664.66;;;24.92;40.07
47636;BME280;33364;50.766;15.338;2023-07-09T07:35:13;95656.50;;;25.11;40.14
47636;BME280;33364;50.766;15.338;2023-07-09T07:37:42;95657.19;;;25.31;38.26
47636;BME280;33364;50.766;15.338;2023-07-09T07:40:08;95660.44;;;25.40;35.73
47636;BME280;33364;50.766;15.338;2023-07-09T07:42:35;95654.53;;;25.57;34.22
47636;BME280;33364;50.766;15.338;2023-07-09T07:45:01;95652.63;;;25.84;35.80
47636;BME280;33364;50.766;15.338;2023-07-09T07:47:27;95646.69;;;25.75;32.92
47636;BME280;33364;50.766;15.338;2023-07-09T07:49:53;95652.25;;;25.85;31.02
47636;BME280;33364;50.766;15.338;2023-07-09T07:52:19;95650.44;;;25.96;32.81
47636;BME280;33364;50.766;15.338;2023-07-09T07:54:45;95648.00;;;26.18;30.31
47636;BME280;33364;50.766;15.338;2023-07-09T07:57:11;95656.81;;;26.37;31.70
47636;BME280;33364;50.766;15.338;2023-07-09T07:59:38;95646.25;;;26.62;29.46
47636;BME280;33364;50.766;15.338;2023-07-09T08:02:06;95654.28;;;26.88;29.74
47636;BME280;33364;50.766;15.338;2023-07-09T08:04:32;95659.81;;;26.99;30.16
47636;BME280;33364;50.766;15.338;2023-07-09T08:06:58;95656.56;;;27.27;31.47
47636;BME280;33364;50.766;15.338;2023-07-09T08:09:24;95655.00;;;27.22;28.28
47636;BME280;33364;50.766;15.338;2023-07-09T08:11:50;95649.31;;;27.42;28.39
47636;BME280;33364;50.766;15.338;2023-07-09T08:14:17;95653.00;;;27.63;29.82
47636;BME280;33364;50.766;15.338;2023-07-09T08:16:43;95647.28;;;27.79;29.75
47636;BME280;33364;50.766;15.338;2023-07-09T08:19:09;95653.44;;;27.76;29.37
47636;BME280;33364;50.766;15.338;2023-07-09T08:21:35;95652.50;;;27.51;25.01
47636;BME280;33364;50.766;15.338;2023-07-09T08:24:01;95644.81;;;27.56;25.87
47636;BME280;33364;50.766;15.338;2023-07-09T08:26:27;95640.91;;;27.54;24.91
47636;BME280;33364;50.766;15.338;2023-07-09T08:28:53;95638.75;;;27.81;25.23
47636;BME280;33364;50.766;15.338;2023-07-09T08:31:20;95638.63;;;27.59;26.04
47636;BME280;33364;50.766;15.338;2023-07-09T08:33:46;95638.06;;;27.98;25.72
47636;BME280;33364;50.766;15.338;2023-07-09T08:36:11;95634.69;;;28.15;26.18
47636;BME280;33364;50.766;15.338;2023-07-09T08:38:38;95629.31;;;28.22;26.96
47636;BME280;33364;50.766;15.338;2023-07-09T08:43:48;95639.91;;;28.66;26.55
47636;BME280;33364;50.766;15.338;2023-07-09T08:46:27;95627.16;;;28.84;26.19
47636;BME280;33364;50.766;15.338;2023-07-09T08:48:56;95635.28;;;28.70;25.08
47636;BME280;33364;50.766;15.338;2023-07-09T08:51:35;95634.97;;;28.96;25.04
47636;BME280;33364;50.766;15.338;2023-07-09T08:54:02;95634.53;;;28.73;25.31
47636;BME280;33364;50.766;15.338;2023-07-09T08:56:32;95634.97;;;29.00;24.10
47636;BME280;33364;50.766;15.338;2023-07-09T08:59:00;95639.63;;;29.17;24.29
47636;BME280;33364;50.766;15.338;2023-07-09T09:01:35;95636.88;;;29.03;23.80
47636;BME280;33364;50.766;15.338;2023-07-09T09:04:28;95638.47;;;28.97;23.64
47636;BME280;33364;50.766;15.338;2023-07-09T09:07:05;95638.06;;;29.30;23.00
47636;BME280;33364;50.766;15.338;2023-07-09T09:09:38;95637.69;;;29.57;23.22
47636;BME280;33364;50.766;15.338;2023-07-09T09:14:40;95624.44;;;29.80;23.73
47636;BME280;33364;50.766;15.338;2023-07-09T09:17:16;95627.56;;;29.78;23.71
47636;BME280;33364;50.766;15.338;2023-07-09T09:19:57;95632.19;;;29.99;22.66
47636;BME280;33364;50.766;15.338;2023-07-09T09:22:28;95624.00;;;30.13;22.39
47636;BME280;33364;50.766;15.338;2023-07-09T09:25:22;95624.47;;;29.66;21.89
47636;BME280;33364;50.766;15.338;2023-07-09T09:27:50;95637.72;;;29.60;22.20
47636;BME280;33364;50.766;15.338;2023-07-09T09:30:21;95628.03;;;29.34;22.19
47636;BME280;33364;50.766;15.338;2023-07-09T09:32:53;95628.72;;;29.77;22.31
47636;BME280;33364;50.766;15.338;2023-07-09T09:35:35;95631.09;;;29.54;22.86
47636;BME280;33364;50.766;15.338;2023-07-09T09:38:02;95633.03;;;29.54;23.28
47636;BME280;33364;50.766;15.338;2023-07-09T09:40:33;95629.09;;;29.94;23.94
47636;BME280;33364;50.766;15.338;2023-07-09T09:43:01;95635.31;;;30.01;22.04
47636;BME280;33364;50.766;15.338;2023-07-09T09:45:33;95629.94;;;29.37;22.48
47636;BME280;33364;50.766;15.338;2023-07-09T09:48:14;95630.97;;;30.21;24.20
47636;BME280;33364;50.766;15.338;2023-07-09T09:50:41;95638.41;;;29.89;22.31
47636;BME280;33364;50.766;15.338;2023-07-09T09:53:08;95631.44;;;30.02;22.67
47636;BME280;33364;50.766;15.338;2023-07-09T09:55:38;95627.16;;;29.91;23.82
47636;BME280;33364;50.766;15.338;2023-07-09T09:58:11;95633.28;;;30.19;23.80
47636;BME280;33364;50.766;15.338;2023-07-09T10:00:39;95632.94;;;30.10;21.95
47636;BME280;33364;50.766;15.338;2023-07-09T10:03:04;95635.28;;;30.12;21.01
47636;BME280;33364;50.766;15.338;2023-07-09T10:05:42;95634.44;;;30.26;21.90
47636;BME280;33364;50.766;15.338;2023-07-09T10:11:18;95629.47;;;30.06;21.58
47636;BME280;33364;50.766;15.338;2023-07-09T10:13:45;95629.41;;;30.17;21.00
47636;BME280;33364;50.766;15.338;2023-07-09T10:16:34;95635.09;;;30.58;21.98
47636;BME280;33364;50.766;15.338;2023-07-09T10:22:00;95633.63;;;30.36;22.60
47636;BME280;33364;50.766;15.338;2023-07-09T10:35:29;95627.19;;;30.81;21.96
47636;BME280;33364;50.766;15.338;2023-07-09T10:38:19;95628.13;;;31.19;21.49
47636;BME280;33364;50.766;15.338;2023-07-09T10:40:52;95635.78;;;31.35;20.42
47636;BME280;33364;50.766;15.338;2023-07-09T10:46:15;95618.06;;;31.57;20.75
47636;BME280;33364;50.766;15.338;2023-07-09T10:48:44;95616.16;;;32.25;21.05
47636;BME280;33364;50.766;15.338;2023-07-09T10:51:38;95616.31;;;31.77;19.78
47636;BME280;33364;50.766;15.338;2023-07-09T10:54:28;95623.00;;;32.07;21.71
47636;BME280;33364;50.766;15.338;2023-07-09T10:57:00;95618.59;;;32.20;21.13
47636;BME280;33364;50.766;15.338;2023-07-09T10:59:32;95615.63;;;32.04;21.48
47636;BME280;33364;50.766;15.338;2023-07-09T11:04:48;95614.09;;;31.65;23.10
47636;BME280;33364;50.766;15.338;2023-07-09T11:07:20;95612.22;;;31.52;23.39
47636;BME280;33364;50.766;15.338;2023-07-09T11:09:49;95622.44;;;30.89;24.43
47636;BME280;33364;50.766;15.338;2023-07-09T11:12:40;95610.44;;;29.78;25.10
47636;BME280;33364;50.766;15.338;2023-07-09T11:15:16;95620.00;;;30.36;24.74
47636;BME280;33364;50.766;15.338;2023-07-09T11:17:45;95615.72;;;30.35;23.83
47636;BME280;33364;50.766;15.338;2023-07-09T11:22:51;95613.22;;;29.35;24.27
47636;BME280;33364;50.766;15.338;2023-07-09T11:25:26;95614.75;;;29.15;25.56
47636;BME280;33364;50.766;15.338;2023-07-09T11:28:04;95610.88;;;29.66;25.85
47636;BME280;33364;50.766;15.338;2023-07-09T11:30:32;95615.34;;;30.33;24.91
47636;BME280;33364;50.766;15.338;2023-07-09T11:33:02;95600.97;;;30.29;24.18
47636;BME280;33364;50.766;15.338;2023-07-09T11:35:45;95606.81;;;31.03;23.44
47636;BME280;33364;50.766;15.338;2023-07-09T11:38:17;95606.22;;;31.26;23.41
47636;BME280;33364;50.766;15.338;2023-07-09T11:41:02;95603.38;;;31.40;22.93
47636;BME280;33364;50.766;15.338;2023-07-09T11:43:34;95608.16;;;31.26;22.72
47636;BME280;33364;50.766;15.338;2023-07-09T11:46:11;95612.66;;;30.95;22.88
47636;BME280;33364;50.766;15.338;2023-07-09T11:48:40;95609.47;;;31.11;22.73
47636;BME280;33364;50.766;15.338;2023-07-09T11:51:23;95609.38;;;30.66;22.08
47636;BME280;33364;50.766;15.338;2023-07-09T11:53:53;95612.22;;;30.31;22.70
47636;BME280;33364;50.766;15.338;2023-07-09T11:56:21;95606.22;;;30.71;22.35
47636;BME280;33364;50.766;15.338;2023-07-09T11:58:52;95612.94;;;30.56;23.25
47636;BME280;33364;50.766;15.338;2023-07-09T12:01:21;95608.56;;;30.69;22.43
47636;BME280;33364;50.766;15.338;2023-07-09T12:03:48;95605.59;;;30.39;22.44
47636;BME280;33364;50.766;15.338;2023-07-09T12:06:41;95597.81;;;30.34;22.46
47636;BME280;33364;50.766;15.338;2023-07-09T12:09:14;95607.00;;;30.68;21.87
47636;BME280;33364;50.766;15.338;2023-07-09T12:11:47;95601.78;;;30.18;22.15
47636;BME280;33364;50.766;15.338;2023-07-09T12:14:19;95605.94;;;30.44;21.99
47636;BME280;33364;50.766;15.338;2023-07-09T12:16:48;95605.56;;;30.42;22.16
47636;BME280;33364;50.766;15.338;2023-07-09T12:19:21;95594.53;;;30.71;21.75
47636;BME280;33364;50.766;15.338;2023-07-09T12:21:50;95592.94;;;30.73;21.76
47636;BME280;33364;50.766;15.338;2023-07-09T12:24:22;95590.53;;;30.86;22.14
47636;BME280;33364;50.766;15.338;2023-07-09T12:26:58;95586.56;;;31.42;21.54
47636;BME280;33364;50.766;15.338;2023-07-09T12:29:25;95584.50;;;31.60;19.60
47636;BME280;33364;50.766;15.338;2023-07-09T12:31:52;95589.41;;;31.35;20.76
47636;BME280;33364;50.766;15.338;2023-07-09T12:34:17;95593.31;;;31.30;20.51
47636;BME280;33364;50.766;15.338;2023-07-09T12:36:48;95581.34;;;31.17;20.76
47636;BME280;33364;50.766;15.338;2023-07-09T12:39:23;95583.13;;;30.83;21.83
47636;BME280;33364;50.766;15.338;2023-07-09T12:41:55;95584.03;;;31.24;20.92
47636;BME280;33364;50.766;15.338;2023-07-09T12:44:23;95580.97;;;31.19;20.28
47636;BME280;33364;50.766;15.338;2023-07-09T12:46:51;95581.97;;;31.35;21.62
47636;BME280;33364;50.766;15.338;2023-07-09T12:49:26;95585.66;;;31.15;20.93
47636;BME280;33364;50.766;15.338;2023-07-09T12:51:57;95579.63;;;30.86;20.38
47636;BME280;33364;50.766;15.338;2023-07-09T12:54:23;95582.91;;;31.18;20.85
47636;BME280;33364;50.766;15.338;2023-07-09T12:56:52;95581.88;;;30.98;20.07
47636;BME280;33364;50.766;15.338;2023-07-09T12:59:26;95568.94;;;30.47;21.72
47636;BME280;33364;50.766;15.338;2023-07-09T13:04:39;95567.34;;;30.56;20.36
47636;BME280;33364;50.766;15.338;2023-07-09T13:07:26;95561.13;;;30.52;20.15
47636;BME280;33364;50.766;15.338;2023-07-09T13:09:54;95571.25;;;30.52;22.02
47636;BME280;33364;50.766;15.338;2023-07-09T13:12:31;95559.66;;;30.34;22.14
47636;BME280;33364;50.766;15.338;2023-07-09T13:14:57;95558.31;;;30.70;21.17
47636;BME280;33364;50.766;15.338;2023-07-09T13:17:28;95563.06;;;31.14;22.49
47636;BME280;33364;50.766;15.338;2023-07-09T13:19:54;95571.75;;;30.98;21.50
47636;BME280;33364;50.766;15.338;2023-07-09T13:22:23;95563.19;;;30.27;21.03
47636;BME280;33364;50.766;15.338;2023-07-09T13:24:48;95557.06;;;30.05;21.81
47636;BME280;33364;50.766;15.338;2023-07-09T13:27:15;95552.78;;;30.04;21.77
47636;BME280;33364;50.766;15.338;2023-07-09T13:29:42;95551.25;;;30.07;22.66
47636;BME280;33364;50.766;15.338;2023-07-09T13:32:13;95553.25;;;29.92;21.93
47636;BME280;33364;50.766;15.338;2023-07-09T13:34:39;95559.06;;;29.87;22.90
47636;BME280;33364;50.766;15.338;2023-07-09T13:37:10;95557.50;;;29.93;22.37